Time;durP1;ratioP1;P1;durP2;ratioP2;P2;SDS_P1;SDS_P2;PMS_P1;PMS_P2;Temp;Humidity;BMP_temperature;BMP_pressure;BME280_temperature;BME280_humidity;BME280_pressure;Samples;Min_cycle;Max_cycle;Signal;HPM_P1;HPM_P2
2023/08/10 00:00:00;;;;;;;11.23;7.13;;;15.20;99.90;;;;;;5093316;28;20171;-72
2023/08/10 00:02:26;;;;;;;7.47;5.63;;;15.20;99.90;;;;;;5091837;28;20706;-72
2023/08/10 00:04:52;;;;;;;10.73;6.63;;;15.20;99.90;;;;;;5093436;28;20293;-73
2023/08/10 00:07:18;;;;;;;6.17;5.07;;;15.20;99.90;;;;;;5093373;28;20168;-72
2023/08/10 00:09:43;;;;;;;7.03;5.30;;;15.10;99.90;;;;;;5093123;28;20300;-72
2023/08/10 00:12:09;;;;;;;7.13;5.10;;;15.00;99.90;;;;;;5093254;28;20171;-72
2023/08/10 00:14:35;;;;;;;6.03;4.33;;;15.00;99.90;;;;;;5093056;28;20218;-72
2023/08/10 00:17:00;;;;;;;5.70;4.23;;;15.10;99.90;;;;;;5092960;28;20175;-72
2023/08/10 00:19:26;;;;;;;14.00;10.50;;;15.00;99.90;;;;;;5093288;28;20175;-72
2023/08/10 00:21:51;;;;;;;9.93;4.97;;;14.90;99.90;;;;;;5093222;28;20211;-72
2023/08/10 00:24:17;;;;;;;10.77;7.00;;;14.90;99.90;;;;;;5093220;28;20536;-73
2023/08/10 00:26:43;;;;;;;8.63;4.27;;;14.90;99.90;;;;;;5093092;28;20213;-72
2023/08/10 00:29:08;;;;;;;5.63;3.83;;;14.80;99.90;;;;;;5092984;28;20223;-72
2023/08/10 00:31:34;;;;;;;6.40;4.50;;;14.80;99.90;;;;;;5092719;28;20180;-72
2023/08/10 00:33:59;;;;;;;5.97;4.40;;;14.70;99.90;;;;;;5092957;28;20179;-72
2023/08/10 00:36:25;;;;;;;4.23;3.83;;;14.60;99.90;;;;;;5093149;28;20183;-73
2023/08/10 00:38:50;;;;;;;5.10;4.13;;;14.60;99.90;;;;;;5093129;28;20635;-72
2023/08/10 00:41:16;;;;;;;5.37;3.73;;;14.50;99.90;;;;;;5092331;28;20176;-72
2023/08/10 00:43:42;;;;;;;10.13;4.40;;;14.60;99.90;;;;;;5092964;28;20183;-73
2023/08/10 00:46:10;;;;;;;8.90;5.50;;;14.60;99.90;;;;;;5091356;28;20182;-73
2023/08/10 00:48:36;;;;;;;9.70;5.80;;;14.70;99.90;;;;;;5092590;28;20662;-72
2023/08/10 00:51:02;;;;;;;5.30;4.50;;;14.70;99.90;;;;;;5092775;28;20196;-72
2023/08/10 00:53:28;;;;;;;7.93;4.30;;;14.80;99.90;;;;;;5092943;28;20198;-72
2023/08/10 00:55:56;;;;;;;4.57;3.73;;;14.90;99.90;;;;;;5092399;28;20276;-74
2023/08/10 00:58:22;;;;;;;8.20;4.23;;;14.90;99.90;;;;;;5092261;28;20172;-72
2023/08/10 01:00:48;;;;;;;6.80;3.93;;;14.90;99.90;;;;;;5092117;28;20171;-72
2023/08/10 01:03:15;;;;;;;5.83;3.60;;;15.00;99.90;;;;;;5091110;28;20175;-73
2023/08/10 01:06:18;;;;;;;6.20;4.10;;;15.00;99.90;;;;;;5095657;28;20232;-72
2023/08/10 01:08:55;;;;;;;7.03;4.50;;;14.90;99.90;;;;;;5096159;28;20211;-72
2023/08/10 01:11:39;;;;;;;4.60;3.37;;;14.80;99.90;;;;;;5095218;28;20612;-73
2023/08/10 01:14:05;;;;;;;6.93;3.60;;;14.80;99.90;;;;;;5096134;28;20207;-73
2023/08/10 01:16:33;;;;;;;6.00;4.00;;;14.80;99.90;;;;;;5096482;28;20187;-72
2023/08/10 01:19:00;;;;;;;5.13;2.90;;;14.80;99.90;;;;;;5096360;28;20259;-72
2023/08/10 01:21:57;;;;;;;5.67;2.93;;;14.80;99.90;;;;;;5096264;28;20175;-73
2023/08/10 01:24:27;;;;;;;4.87;3.50;;;15.00;99.90;;;;;;5096227;28;20553;-72
2023/08/10 01:26:55;;;;;;;8.70;4.13;;;15.00;99.90;;;;;;5096323;28;20183;-72
2023/08/10 01:29:22;;;;;;;5.50;3.40;;;14.90;99.90;;;;;;5095671;28;20199;-72
2023/08/10 01:31:48;;;;;;;4.67;4.13;;;14.90;99.90;;;;;;5096000;28;20172;-71
2023/08/10 01:34:14;;;;;;;11.87;5.03;;;14.90;99.90;;;;;;5096192;28;20183;-73
2023/08/10 01:36:40;;;;;;;6.70;4.60;;;14.80;99.90;;;;;;5096244;28;20175;-72
2023/08/10 01:39:06;;;;;;;9.07;6.80;;;14.70;99.90;;;;;;5096064;28;20172;-72
2023/08/10 01:41:32;;;;;;;8.50;6.20;;;14.80;99.90;;;;;;5095744;28;20295;-72
2023/08/10 01:43:58;;;;;;;7.83;5.00;;;14.80;99.90;;;;;;5095414;28;20175;-72
2023/08/10 01:46:26;;;;;;;7.20;5.20;;;14.90;99.90;;;;;;5095868;28;20632;-72
2023/08/10 01:48:55;;;;;;;5.73;4.40;;;14.90;99.90;;;;;;5095513;28;20211;-72
2023/08/10 01:51:25;;;;;;;8.30;3.83;;;14.80;99.90;;;;;;5095607;28;20264;-72
2023/08/10 01:53:52;;;;;;;5.40;4.23;;;14.60;99.90;;;;;;5095502;28;20631;-71
2023/08/10 01:56:18;;;;;;;7.13;4.57;;;14.50;99.90;;;;;;5095573;28;20172;-71
2023/08/10 01:58:44;;;;;;;4.73;3.60;;;14.30;99.90;;;;;;5095262;28;20180;-72
2023/08/10 02:01:10;;;;;;;5.13;4.27;;;14.20;99.90;;;;;;5095659;28;20182;-72
2023/08/10 02:03:36;;;;;;;6.77;3.50;;;14.20;99.90;;;;;;5095564;28;20701;-73
2023/08/10 02:06:02;;;;;;;5.80;3.37;;;14.10;99.90;;;;;;5094307;28;20168;-71
2023/08/10 02:08:28;;;;;;;5.83;3.43;;;14.00;99.90;;;;;;5095365;28;20206;-71
2023/08/10 02:10:53;;;;;;;6.40;3.67;;;14.00;99.90;;;;;;5095398;28;20172;-72
2023/08/10 02:13:19;;;;;;;6.23;3.50;;;13.90;99.90;;;;;;5094929;28;20194;-72
2023/08/10 02:15:45;;;;;;;5.67;3.50;;;13.90;99.90;;;;;;5094607;28;20169;-72
2023/08/10 02:18:14;;;;;;;8.60;4.60;;;13.90;99.90;;;;;;5095234;28;20575;-71
2023/08/10 02:20:40;;;;;;;11.87;4.03;;;13.90;99.90;;;;;;5095374;28;20167;-72
2023/08/10 02:23:06;;;;;;;5.50;3.10;;;13.90;99.90;;;;;;5095284;28;20171;-71
2023/08/10 02:25:32;;;;;;;7.47;3.90;;;13.90;99.90;;;;;;5095167;28;20646;-72
2023/08/10 02:27:57;;;;;;;7.17;3.70;;;13.90;99.90;;;;;;5094694;28;20168;-72
2023/08/10 02:30:23;;;;;;;10.13;3.60;;;13.90;99.90;;;;;;5094778;28;20180;-71
2023/08/10 02:32:48;;;;;;;8.90;4.13;;;13.90;99.90;;;;;;5094829;28;20164;-72
2023/08/10 02:35:14;;;;;;;7.80;3.83;;;14.00;99.90;;;;;;5094801;28;20176;-72
2023/08/10 02:37:40;;;;;;;16.07;4.33;;;14.00;99.90;;;;;;5094747;28;20171;-71
2023/08/10 02:40:07;;;;;;;20.33;4.67;;;14.00;99.90;;;;;;5094409;28;20171;-72
2023/08/10 02:42:33;;;;;;;13.10;4.37;;;13.90;99.90;;;;;;5094288;28;20235;-71
2023/08/10 02:44:59;;;;;;;8.67;6.60;;;13.90;99.90;;;;;;5094926;28;20176;-71
2023/08/10 02:47:25;;;;;;;11.00;4.30;;;13.90;99.90;;;;;;5093338;28;20180;-72
2023/08/10 02:49:51;;;;;;;7.30;5.00;;;13.90;99.90;;;;;;5094399;28;20269;-72
2023/08/10 02:52:16;;;;;;;6.70;3.60;;;13.80;99.90;;;;;;5094586;28;20191;-72
2023/08/10 02:54:42;;;;;;;6.67;4.00;;;13.90;99.90;;;;;;5094545;28;20183;-72
2023/08/10 02:57:07;;;;;;;4.33;3.43;;;13.90;99.90;;;;;;5094129;28;20274;-72
2023/08/10 02:59:33;;;;;;;8.10;3.70;;;14.10;99.90;;;;;;5094426;28;20572;-72
2023/08/10 03:01:59;;;;;;;6.10;3.73;;;14.20;99.90;;;;;;5093112;28;20183;-72
2023/08/10 03:04:24;;;;;;;4.60;4.00;;;14.20;99.90;;;;;;5094252;28;20176;-72
2023/08/10 03:06:51;;;;;;;6.60;3.50;;;14.20;99.90;;;;;;5092986;28;20646;-72
2023/08/10 03:09:16;;;;;;;6.17;3.73;;;14.10;99.90;;;;;;5094232;28;20298;-72
2023/08/10 03:11:42;;;;;;;8.07;3.90;;;14.10;99.90;;;;;;5093919;28;20207;-72
2023/08/10 03:14:07;;;;;;;5.23;3.73;;;14.10;99.90;;;;;;5094019;28;20179;-72
2023/08/10 03:16:33;;;;;;;5.47;3.40;;;14.10;99.90;;;;;;5094123;28;20179;-72
2023/08/10 03:18:58;;;;;;;4.63;3.40;;;14.10;99.90;;;;;;5093914;28;20180;-72
2023/08/10 03:21:24;;;;;;;5.63;3.97;;;14.10;99.90;;;;;;5093668;28;20198;-72
2023/08/10 03:23:50;;;;;;;5.97;4.00;;;14.20;99.90;;;;;;5093844;28;20225;-72
2023/08/10 03:26:15;;;;;;;5.40;3.70;;;14.20;99.90;;;;;;5093555;28;20201;-72
2023/08/10 03:28:41;;;;;;;5.57;3.80;;;14.20;99.90;;;;;;5093573;28;20298;-72
2023/08/10 03:31:06;;;;;;;6.23;3.67;;;14.20;99.90;;;;;;5093375;28;20258;-73
2023/08/10 03:33:32;;;;;;;6.73;4.20;;;14.20;99.90;;;;;;5093709;28;20178;-73
2023/08/10 03:35:58;;;;;;;5.10;4.20;;;14.30;99.90;;;;;;5093582;28;20206;-73
2023/08/10 03:38:23;;;;;;;9.27;4.77;;;14.20;99.90;;;;;;5093488;28;20183;-72
2023/08/10 03:40:49;;;;;;;8.90;4.07;;;14.10;99.90;;;;;;5093038;28;20603;-72
2023/08/10 03:43:15;;;;;;;6.63;4.40;;;14.00;99.90;;;;;;5092251;28;20219;-72
2023/08/10 03:45:40;;;;;;;8.20;4.40;;;14.00;99.90;;;;;;5093135;28;20651;-71
2023/08/10 03:48:06;;;;;;;5.70;4.70;;;14.10;99.90;;;;;;5093537;28;20175;-72
2023/08/10 03:50:32;;;;;;;6.47;4.80;;;14.20;99.90;;;;;;5093260;28;20180;-72
2023/08/10 03:52:57;;;;;;;15.13;4.57;;;14.20;99.90;;;;;;5093119;28;20188;-72
2023/08/10 03:55:23;;;;;;;15.43;5.27;;;14.20;99.90;;;;;;5093163;28;20171;-72
2023/08/10 03:57:48;;;;;;;9.73;4.63;;;14.00;99.90;;;;;;5093460;28;20172;-72
2023/08/10 04:00:16;;;;;;;6.70;4.20;;;13.80;99.90;;;;;;5092960;28;20558;-71
2023/08/10 04:02:41;;;;;;;7.03;4.20;;;13.80;99.90;;;;;;5092697;28;20697;-71
2023/08/10 04:05:07;;;;;;;6.70;4.30;;;13.80;99.90;;;;;;5092944;28;20260;-72
2023/08/10 04:07:33;;;;;;;8.67;4.40;;;13.70;99.90;;;;;;5092794;28;20172;-72
2023/08/10 04:10:00;;;;;;;8.63;4.13;;;13.70;99.90;;;;;;5092277;28;20207;-72
2023/08/10 04:12:27;;;;;;;9.67;4.50;;;13.70;99.90;;;;;;5092682;28;20226;-72
2023/08/10 04:14:53;;;;;;;7.17;4.30;;;13.80;99.90;;;;;;5092934;28;20175;-72
2023/08/10 04:17:19;;;;;;;14.13;4.63;;;13.90;99.90;;;;;;5093062;28;20507;-73
2023/08/10 04:19:44;;;;;;;12.97;5.00;;;14.00;99.90;;;;;;5092838;28;20175;-72
2023/08/10 04:22:10;;;;;;;9.20;4.87;;;14.00;99.90;;;;;;5092606;28;20225;-73
2023/08/10 04:24:36;;;;;;;20.20;5.97;;;14.00;99.90;;;;;;5092286;28;20183;-73
2023/08/10 04:27:02;;;;;;;14.83;5.17;;;14.00;99.90;;;;;;5093233;28;20187;-72
2023/08/10 04:29:28;;;;;;;10.13;5.30;;;13.90;99.90;;;;;;5092399;28;20218;-72
2023/08/10 04:31:54;;;;;;;10.13;5.00;;;13.90;99.90;;;;;;5092662;28;20255;-72
2023/08/10 04:34:20;;;;;;;14.90;4.93;;;13.90;99.90;;;;;;5092555;28;20254;-73
2023/08/10 04:36:46;;;;;;;14.57;5.57;;;13.80;99.90;;;;;;5092574;28;20179;-73
2023/08/10 04:39:12;;;;;;;12.23;5.33;;;13.80;99.90;;;;;;5093347;28;20176;-72
2023/08/10 04:41:38;;;;;;;8.00;4.47;;;13.90;99.90;;;;;;5095649;28;20245;-72
2023/08/10 04:44:04;;;;;;;8.80;4.43;;;14.10;99.90;;;;;;5097033;28;20210;-72
2023/08/10 04:46:29;;;;;;;15.10;5.00;;;14.30;99.90;;;;;;5096753;28;20175;-72
2023/08/10 04:48:55;;;;;;;11.20;4.53;;;14.70;99.90;;;;;;5096497;28;20706;-72
2023/08/10 04:51:21;;;;;;;13.20;5.43;;;15.20;99.90;;;;;;5096187;28;20654;-72
2023/08/10 04:53:46;;;;;;;14.80;4.60;;;15.90;99.90;;;;;;5096040;28;20274;-72
2023/08/10 04:56:12;;;;;;;18.13;5.43;;;16.70;99.90;;;;;;5096964;28;20198;-74
2023/08/10 04:58:38;;;;;;;15.10;4.70;;;17.60;99.90;;;;;;5096676;28;20645;-73
2023/08/10 05:01:03;;;;;;;10.77;4.05;;;18.40;99.90;;;;;;5096315;28;20237;-75
2023/08/10 05:03:29;;;;;;;15.82;4.65;;;19.00;99.90;;;;;;5096240;28;20530;-75
2023/08/10 05:05:55;;;;;;;19.75;4.57;;;19.40;99.90;;;;;;5095906;28;20168;-73
2023/08/10 05:08:22;;;;;;;20.42;4.93;;;20.40;99.90;;;;;;5096276;28;20211;-75
2023/08/10 05:10:47;;;;;;;16.67;4.80;;;21.30;1.00;;;;;;5096289;28;20175;-75
2023/08/10 05:13:13;;;;;;;14.32;4.57;;;22.00;1.00;;;;;;5096168;28;20180;-75
2023/08/10 05:15:39;;;;;;;11.77;4.32;;;22.80;1.00;;;;;;5096331;28;20168;-75
2023/08/10 05:18:05;;;;;;;13.65;4.45;;;23.20;1.00;;;;;;5096180;28;20260;-75
2023/08/10 05:20:31;;;;;;;12.32;4.25;;;23.40;1.00;;;;;;5095418;28;20168;-75
2023/08/10 05:22:57;;;;;;;11.82;4.57;;;24.20;1.00;;;;;;5095946;28;20317;-76
2023/08/10 05:25:22;;;;;;;15.43;4.18;;;24.70;99.90;;;;;;5095623;28;20210;-75
2023/08/10 05:27:48;;;;;;;7.95;3.70;;;24.60;99.90;;;;;;5095434;28;20310;-75
2023/08/10 05:30:14;;;;;;;12.15;4.43;;;24.90;99.90;;;;;;5095892;28;20215;-76
2023/08/10 05:32:43;;;;;;;15.05;4.47;;;25.70;1.00;;;;;;5095175;28;20243;-76
2023/08/10 05:35:10;;;;;;;12.63;4.60;;;26.80;1.00;;;;;;5093674;28;20183;-75
2023/08/10 05:37:37;;;;;;;11.43;4.00;;;27.50;99.90;;;;;;5095562;28;20176;-75
2023/08/10 05:40:09;;;;;;;12.35;4.47;;;28.30;1.00;;;;;;5095399;28;20225;-76
2023/08/10 05:42:39;;;;;;;11.73;4.40;;;28.40;1.00;;;;;;5095491;28;20272;-75
2023/08/10 05:45:09;;;;;;;13.45;4.47;;;28.90;1.00;;;;;;5095294;28;20168;-75
2023/08/10 05:47:35;;;;;;;9.88;4.40;;;29.60;1.00;;;;;;5095254;28;20172;-75
2023/08/10 05:50:05;;;;;;;9.55;5.30;;;29.80;99.90;;;;;;5094022;28;20204;-75
2023/08/10 05:52:30;;;;;;;12.52;5.35;;;29.80;1.00;;;;;;5094563;28;20184;-76
2023/08/10 05:54:56;;;;;;;12.40;4.60;;;30.50;1.00;;;;;;5094862;28;20176;-74
2023/08/10 05:57:21;;;;;;;13.95;4.75;;;31.10;1.00;;;;;;5095305;28;20172;-74
2023/08/10 05:59:47;;;;;;;10.23;4.40;;;31.50;1.00;;;;;;5095216;28;20168;-74
2023/08/10 06:02:13;;;;;;;12.50;4.03;;;32.20;50.50;;;;;;5094729;28;20175;-75
2023/08/10 06:04:41;;;;;;;6.75;3.60;;;32.30;50.60;;;;;;5094329;28;20251;-74
2023/08/10 06:07:07;;;;;;;6.40;3.20;;;32.30;48.70;;;;;;5094912;28;20183;-75
2023/08/10 06:09:33;;;;;;;6.75;2.85;;;32.60;46.10;;;;;;5094802;28;20668;-74
2023/08/10 06:12:00;;;;;;;4.70;2.75;;;32.70;43.00;;;;;;5094649;28;20184;-75
2023/08/10 06:14:26;;;;;;;2.80;2.10;;;32.00;42.90;;;;;;5094920;28;20235;-74
2023/08/10 06:16:52;;;;;;;2.28;2.08;;;32.40;41.10;;;;;;5094405;28;20163;-75
2023/08/10 06:19:17;;;;;;;6.22;2.33;;;32.50;40.20;;;;;;5094299;28;20175;-74
2023/08/10 06:21:43;;;;;;;2.10;1.90;;;32.80;39.10;;;;;;5093412;28;20174;-75
2023/08/10 06:24:09;;;;;;;2.10;2.00;;;33.10;36.90;;;;;;5094397;28;20176;-75
2023/08/10 06:26:36;;;;;;;3.53;2.10;;;32.80;36.40;;;;;;5093612;28;20619;-75
2023/08/10 06:29:04;;;;;;;2.20;1.88;;;32.40;37.30;;;;;;5094695;28;20211;-75
2023/08/10 06:31:30;;;;;;;2.05;1.77;;;31.60;36.60;;;;;;5094355;28;20164;-75
2023/08/10 06:33:56;;;;;;;3.80;1.75;;;31.20;37.30;;;;;;5094161;28;20209;-75
2023/08/10 06:36:22;;;;;;;2.80;1.80;;;31.50;38.00;;;;;;5094210;28;20258;-75
2023/08/10 06:38:48;;;;;;;3.20;2.00;;;32.00;37.30;;;;;;5094735;28;20175;-75
2023/08/10 06:41:14;;;;;;;3.63;1.60;;;31.50;37.20;;;;;;5093901;28;20266;-74
2023/08/10 06:43:39;;;;;;;1.98;1.58;;;29.40;39.70;;;;;;5093694;28;20259;-75
2023/08/10 06:46:05;;;;;;;3.25;2.13;;;29.30;41.20;;;;;;5093956;28;20172;-75
2023/08/10 06:48:31;;;;;;;3.05;2.13;;;29.20;41.70;;;;;;5093728;28;20227;-75
2023/08/10 06:50:57;;;;;;;2.20;1.80;;;30.00;41.20;;;;;;5094033;28;20596;-75
2023/08/10 06:53:23;;;;;;;1.88;1.73;;;30.30;39.00;;;;;;5093740;28;20187;-75
2023/08/10 06:55:50;;;;;;;4.38;1.60;;;31.40;37.60;;;;;;5094068;28;20199;-76
2023/08/10 06:58:16;;;;;;;2.30;1.60;;;31.40;35.80;;;;;;5093622;28;20172;-75
2023/08/10 07:00:42;;;;;;;2.03;1.67;;;31.40;36.20;;;;;;5094013;28;20164;-75
2023/08/10 07:03:07;;;;;;;2.38;1.40;;;30.80;36.70;;;;;;5093151;28;20178;-75
2023/08/10 07:05:40;;;;;;;3.92;1.50;;;30.90;37.20;;;;;;5093482;28;20225;-76
2023/08/10 07:08:06;;;;;;;3.80;1.77;;;31.00;36.90;;;;;;5093955;28;20647;-76
2023/08/10 07:10:32;;;;;;;2.33;1.48;;;31.50;35.90;;;;;;5093839;28;20187;-76
2023/08/10 07:12:58;;;;;;;4.03;1.77;;;31.50;35.30;;;;;;5093430;28;20611;-77
2023/08/10 07:15:23;;;;;;;2.10;1.90;;;31.80;35.20;;;;;;5093578;28;20182;-77
2023/08/10 07:17:49;;;;;;;2.22;1.70;;;32.00;35.30;;;;;;5091884;28;20200;-77
2023/08/10 07:20:18;;;;;;;3.30;1.92;;;32.70;33.70;;;;;;5093285;28;20207;-78
2023/08/10 07:22:45;;;;;;;1.95;1.73;;;33.50;33.50;;;;;;5093524;28;20172;-78
2023/08/10 07:25:12;;;;;;;1.92;1.73;;;34.60;32.50;;;;;;5093735;28;20175;-78
2023/08/10 07:27:37;;;;;;;2.10;1.55;;;33.10;31.30;;;;;;5093312;28;20259;-79
2023/08/10 07:30:03;;;;;;;1.60;1.50;;;32.20;32.50;;;;;;5093108;28;20315;-79
2023/08/10 07:32:30;;;;;;;1.77;1.05;;;31.80;32.30;;;;;;5093234;28;20255;-78
2023/08/10 07:34:56;;;;;;;3.33;1.55;;;30.50;32.90;;;;;;5092772;28;20167;-78
2023/08/10 07:37:23;;;;;;;3.25;1.33;;;30.70;33.30;;;;;;5093328;28;20310;-79
2023/08/10 07:39:48;;;;;;;2.22;1.70;;;30.90;33.30;;;;;;5093272;28;20218;-78
2023/08/10 07:42:14;;;;;;;4.65;4.10;;;31.00;33.00;;;;;;5092663;28;20626;-78
2023/08/10 07:44:40;;;;;;;1.58;1.20;;;30.80;32.50;;;;;;5093465;28;20168;-78
2023/08/10 07:47:05;;;;;;;1.90;1.30;;;30.40;32.40;;;;;;5092820;28;20650;-78
2023/08/10 07:49:31;;;;;;;1.17;1.00;;;30.30;32.30;;;;;;5093028;28;20257;-78
2023/08/10 07:52:00;;;;;;;1.77;1.10;;;31.40;32.70;;;;;;5093084;28;20234;-78
2023/08/10 07:54:26;;;;;;;1.40;1.23;;;31.30;30.50;;;;;;5093265;28;20282;-78
2023/08/10 07:56:52;;;;;;;1.23;1.10;;;31.10;31.20;;;;;;5092600;28;20176;-78
2023/08/10 07:59:17;;;;;;;1.20;1.10;;;31.80;30.80;;;;;;5093257;28;20180;-78
2023/08/10 08:01:43;;;;;;;1.35;1.23;;;31.90;30.20;;;;;;5092119;28;20174;-78
2023/08/10 08:04:09;;;;;;;1.30;1.20;;;31.40;30.40;;;;;;5093242;28;20172;-76
2023/08/10 08:06:36;;;;;;;2.10;1.38;;;30.20;30.60;;;;;;5093196;28;20536;-80
2023/08/10 08:09:04;;;;;;;1.27;1.17;;;30.60;32.00;;;;;;5092848;28;20287;-78
2023/08/10 08:11:30;;;;;;;1.00;1.00;;;30.30;32.90;;;;;;5092067;28;20156;-76
2023/08/10 08:13:56;;;;;;;3.42;1.15;;;30.60;32.40;;;;;;5093072;28;20221;-77
2023/08/10 08:16:21;;;;;;;2.08;1.30;;;30.40;32.80;;;;;;5092472;28;20172;-78
2023/08/10 08:18:55;;;;;;;1.90;1.35;;;30.90;32.80;;;;;;5092826;28;20295;-79
2023/08/10 08:21:28;;;;;;;1.60;1.20;;;30.90;32.40;;;;;;5091696;28;20619;-78
2023/08/10 08:23:55;;;;;;;1.92;1.55;;;30.50;33.40;;;;;;5092932;28;20172;-79
2023/08/10 08:26:23;;;;;;;1.42;1.33;;;30.70;33.70;;;;;;5092797;28;20230;-78
2023/08/10 08:28:50;;;;;;;2.20;1.50;;;30.70;35.00;;;;;;5093273;28;20215;-78
2023/08/10 08:31:16;;;;;;;1.45;1.35;;;30.90;34.20;;;;;;5092436;28;20178;-79
2023/08/10 08:33:42;;;;;;;1.48;1.38;;;30.60;34.60;;;;;;5092669;28;20179;-78
2023/08/10 08:36:08;;;;;;;1.35;1.10;;;30.40;35.40;;;;;;5092749;28;20175;-79
2023/08/10 08:38:34;;;;;;;1.40;1.30;;;30.30;35.20;;;;;;5092623;28;20211;-78
2023/08/10 08:41:07;;;;;;;2.15;1.00;;;30.20;36.10;;;;;;5092201;28;20198;-80
2023/08/10 08:43:34;;;;;;;1.63;1.30;;;30.60;36.10;;;;;;5092796;28;20271;-78
2023/08/10 08:46:00;;;;;;;1.38;1.23;;;30.50;36.20;;;;;;5092966;28;20164;-78
2023/08/10 08:48:27;;;;;;;1.25;1.20;;;29.70;36.40;;;;;;5092372;28;20200;-78
2023/08/10 08:50:53;;;;;;;2.20;1.27;;;29.50;38.40;;;;;;5092096;28;20631;-77
2023/08/10 08:53:19;;;;;;;1.52;1.33;;;29.70;37.80;;;;;;5092810;28;20255;-79
2023/08/10 08:55:46;;;;;;;1.40;1.30;;;29.80;38.00;;;;;;5092261;28;20703;-80
2023/08/10 08:58:14;;;;;;;4.53;4.10;;;29.40;38.40;;;;;;5091786;28;20238;-79
2023/08/10 09:00:46;;;;;;;2.72;1.20;;;29.20;39.10;;;;;;5092363;28;20168;-79
2023/08/10 09:03:12;;;;;;;1.58;1.08;;;30.20;38.30;;;;;;5092585;28;20165;-77
2023/08/10 09:05:37;;;;;;;1.38;1.27;;;31.30;36.70;;;;;;5091270;28;20205;-77
2023/08/10 09:08:03;;;;;;;2.20;1.40;;;31.70;36.00;;;;;;5092236;28;20172;-77
2023/08/10 09:10:29;;;;;;;2.05;1.90;;;31.80;35.30;;;;;;5092470;28;20174;-78
2023/08/10 09:12:55;;;;;;;2.72;1.25;;;30.00;37.20;;;;;;5091874;28;20160;-77
2023/08/10 09:15:21;;;;;;;2.63;1.27;;;30.40;38.30;;;;;;5092014;28;20726;-76
2023/08/10 09:17:48;;;;;;;2.70;1.48;;;29.90;37.60;;;;;;5091924;28;20230;-76
2023/08/10 09:20:23;;;;;;;1.17;1.02;;;29.70;38.70;;;;;;5091916;28;20569;-77
2023/08/10 09:22:53;;;;;;;2.45;1.50;;;29.40;39.20;;;;;;5092288;28;20182;-77
2023/08/10 09:25:20;;;;;;;1.80;1.38;;;29.40;40.00;;;;;;5091726;28;20163;-78
2023/08/10 09:27:49;;;;;;;1.58;1.23;;;30.00;39.00;;;;;;5094341;28;20527;-78
2023/08/10 09:30:16;;;;;;;1.30;1.20;;;30.30;38.70;;;;;;5096036;28;20268;-75
2023/08/10 09:32:42;;;;;;;2.28;1.77;;;30.60;38.40;;;;;;5095706;28;20179;-78
2023/08/10 09:35:14;;;;;;;1.95;1.85;;;30.00;38.10;;;;;;5095485;28;20643;-75
2023/08/10 09:37:40;;;;;;;2.67;2.47;;;27.30;41.20;;;;;;5093807;28;20194;-76
2023/08/10 09:40:08;;;;;;;2.30;1.60;;;26.20;46.00;;;;;;5095754;28;20623;-76
2023/08/10 09:42:34;;;;;;;1.77;1.50;;;26.90;47.00;;;;;;5093439;28;20292;-76
2023/08/10 09:45:11;;;;;;;2.47;1.40;;;28.00;44.30;;;;;;5095693;28;20168;-76
2023/08/10 09:47:39;;;;;;;2.45;1.20;;;28.00;43.00;;;;;;5095292;28;20237;-76
2023/08/10 09:50:13;;;;;;;1.42;1.33;;;28.40;43.80;;;;;;5095134;28;20212;-76
2023/08/10 09:52:40;;;;;;;1.95;1.27;;;28.30;44.20;;;;;;5095307;28;20192;-75
2023/08/10 09:55:07;;;;;;;1.70;1.27;;;29.20;44.20;;;;;;5095472;28;20175;-75
2023/08/10 09:57:34;;;;;;;1.40;1.30;;;27.80;43.40;;;;;;5094425;28;20199;-75
2023/08/10 10:00:00;;;;;;;2.75;1.60;;;26.70;47.70;;;;;;5094661;28;20171;-75
2023/08/10 10:02:26;;;;;;;1.60;1.50;;;26.70;48.30;;;;;;5095067;28;20616;-75
2023/08/10 10:04:52;;;;;;;2.47;1.95;;;26.90;47.80;;;;;;5094708;28;20176;-74
2023/08/10 10:07:27;;;;;;;1.73;1.30;;;26.40;49.30;;;;;;5095114;28;20164;-74
2023/08/10 10:09:56;;;;;;;1.77;1.58;;;27.10;49.20;;;;;;5093730;28;20324;-74
2023/08/10 10:12:24;;;;;;;3.67;1.70;;;28.20;45.40;;;;;;5093989;28;20176;-75
2023/08/10 10:14:51;;;;;;;1.27;1.27;;;28.80;44.70;;;;;;5094527;28;20186;-76
2023/08/10 10:17:18;;;;;;;1.92;1.80;;;29.50;42.20;;;;;;5095103;28;20172;-74
2023/08/10 10:19:46;;;;;;;1.40;1.30;;;29.00;42.10;;;;;;5094656;28;20172;-75
2023/08/10 10:22:12;;;;;;;1.90;1.40;;;29.10;40.80;;;;;;5094632;28;20518;-74
2023/08/10 10:24:41;;;;;;;1.23;1.23;;;29.40;40.40;;;;;;5094674;28;20651;-74
2023/08/10 10:27:13;;;;;;;1.30;1.20;;;29.00;40.00;;;;;;5093886;28;20175;-74
2023/08/10 10:29:43;;;;;;;1.38;1.38;;;28.90;41.30;;;;;;5094531;28;20211;-74
2023/08/10 10:32:22;;;;;;;1.60;1.50;;;29.10;41.40;;;;;;5094032;28;20156;-75
2023/08/10 10:34:52;;;;;;;1.95;1.23;;;29.00;42.50;;;;;;5093987;28;20190;-73
2023/08/10 10:37:28;;;;;;;1.80;1.52;;;29.60;42.30;;;;;;5093747;28;20160;-74
2023/08/10 10:40:18;;;;;;;1.80;1.63;;;30.00;41.20;;;;;;5093573;28;20631;-74
2023/08/10 10:43:08;;;;;;;5.30;4.57;;;30.20;40.90;;;;;;5093877;28;20729;-74
2023/08/10 10:45:36;;;;;;;1.80;1.70;;;28.70;42.80;;;;;;5093851;28;20653;-73
2023/08/10 10:48:04;;;;;;;1.85;1.38;;;28.00;44.40;;;;;;5093798;28;20191;-73
2023/08/10 10:50:30;;;;;;;1.80;1.70;;;27.70;46.80;;;;;;5093889;28;20206;-74
2023/08/10 10:53:16;;;;;;;2.15;1.95;;;27.40;47.40;;;;;;5096071;28;20194;-73
2023/08/10 10:55:43;;;;;;;2.03;1.50;;;28.40;46.30;;;;;;5093415;28;20262;-73
2023/08/10 10:58:14;;;;;;;1.80;1.40;;;28.70;45.00;;;;;;5093771;28;20665;-74
2023/08/10 11:00:41;;;;;;;1.60;1.50;;;28.90;45.20;;;;;;5094245;28;20233;-73
2023/08/10 11:03:09;;;;;;;1.73;1.35;;;29.40;44.00;;;;;;5093614;28;20179;-74
2023/08/10 11:05:35;;;;;;;1.63;1.52;;;29.10;43.70;;;;;;5093882;28;20175;-74
2023/08/10 11:08:05;;;;;;;1.80;1.70;;;28.70;45.30;;;;;;5094273;28;20213;-74
2023/08/10 11:10:36;;;;;;;2.15;1.90;;;29.20;44.40;;;;;;5093289;28;20256;-74
2023/08/10 11:13:07;;;;;;;2.22;1.67;;;29.00;44.60;;;;;;5094109;28;20160;-74
2023/08/10 11:15:33;;;;;;;1.30;1.30;;;29.30;44.60;;;;;;5093384;28;20172;-74
2023/08/10 11:17:59;;;;;;;2.58;2.20;;;29.80;43.40;;;;;;5093273;28;20164;-73
2023/08/10 11:20:26;;;;;;;1.98;1.70;;;29.40;43.70;;;;;;5093460;28;20172;-74
2023/08/10 11:22:53;;;;;;;1.58;1.48;;;29.00;45.00;;;;;;5092810;28;20190;-73
2023/08/10 11:25:22;;;;;;;2.15;1.65;;;29.70;45.00;;;;;;5091691;28;20258;-73
2023/08/10 11:27:49;;;;;;;1.40;1.30;;;30.40;43.00;;;;;;5093654;28;20160;-73
2023/08/10 11:30:17;;;;;;;1.30;1.20;;;30.20;42.00;;;;;;5093004;28;20267;-73
2023/08/10 11:32:45;;;;;;;1.58;1.40;;;29.30;43.90;;;;;;5092133;28;20164;-72
2023/08/10 11:35:12;;;;;;;1.60;1.50;;;28.90;44.60;;;;;;5093267;28;20224;-74
2023/08/10 11:37:39;;;;;;;1.40;1.30;;;29.10;45.50;;;;;;5093146;28;20268;-73
2023/08/10 11:40:13;;;;;;;1.60;1.50;;;30.20;44.60;;;;;;5093376;28;20535;-73
2023/08/10 11:42:40;;;;;;;2.05;1.50;;;29.30;44.70;;;;;;5092882;28;20314;-72
2023/08/10 11:45:11;;;;;;;2.58;1.70;;;28.60;45.60;;;;;;5093332;28;20172;-73
2023/08/10 11:47:59;;;;;;;2.40;1.60;;;28.40;47.60;;;;;;5092416;28;20176;-73
2023/08/10 11:50:29;;;;;;;1.92;1.40;;;28.40;48.30;;;;;;5092851;28;20204;-72
2023/08/10 11:52:56;;;;;;;3.17;1.55;;;28.20;48.30;;;;;;5092274;28;20195;-74
2023/08/10 11:55:22;;;;;;;1.45;1.35;;;28.40;48.90;;;;;;5093183;28;20175;-72
2023/08/10 11:57:49;;;;;;;1.60;1.50;;;28.20;48.10;;;;;;5092717;28;20195;-73
2023/08/10 12:00:22;;;;;;;3.55;2.33;;;28.30;48.50;;;;;;5093161;28;20669;-72
2023/08/10 12:03:04;;;;;;;2.47;1.30;;;28.00;49.20;;;;;;5092699;28;20236;-73
2023/08/10 12:05:48;;;;;;;1.60;1.50;;;27.40;50.10;;;;;;5092720;28;20168;-73
2023/08/10 12:08:16;;;;;;;2.47;1.75;;;27.50;51.10;;;;;;5092499;28;20206;-72
2023/08/10 12:10:49;;;;;;;2.55;1.65;;;27.30;52.40;;;;;;5092797;28;20176;-73
2023/08/10 12:13:17;;;;;;;1.70;1.60;;;27.10;52.80;;;;;;5092150;28;20166;-71
2023/08/10 12:15:47;;;;;;;2.10;1.40;;;27.30;52.00;;;;;;5092850;28;20641;-73
2023/08/10 12:18:15;;;;;;;1.60;1.50;;;27.10;52.10;;;;;;5092625;28;20182;-72
2023/08/10 12:20:44;;;;;;;3.28;3.00;;;26.70;54.10;;;;;;5092550;28;20176;-72
2023/08/10 12:23:11;;;;;;;3.47;1.58;;;26.50;55.20;;;;;;5092504;28;20191;-72
2023/08/10 12:25:37;;;;;;;2.60;1.90;;;26.50;55.80;;;;;;5092455;28;20168;-72
2023/08/10 12:28:04;;;;;;;2.08;1.73;;;26.90;55.40;;;;;;5092902;28;20203;-72
2023/08/10 12:30:30;;;;;;;2.08;1.98;;;26.70;54.70;;;;;;5092487;28;20755;-72
2023/08/10 12:32:56;;;;;;;3.58;1.70;;;26.20;56.60;;;;;;5092468;28;20203;-72
2023/08/10 12:35:21;;;;;;;1.88;1.70;;;26.00;57.80;;;;;;5092850;28;20214;-72
2023/08/10 12:37:50;;;;;;;4.50;2.45;;;25.90;57.10;;;;;;5092518;28;20248;-72
2023/08/10 12:40:16;;;;;;;2.75;1.60;;;25.90;99.90;;;;;;5091816;28;20647;-72
2023/08/10 12:42:43;;;;;;;2.17;2.08;;;26.00;99.90;;;;;;5092249;28;20219;-72
2023/08/10 12:45:10;;;;;;;1.98;1.88;;;25.70;99.90;;;;;;5091752;28;20182;-73